Aviation Digital Data Service (ADDS)

Output produced by METARs form (0633 UTC 27 March 2017)
found at http://www.aviationweather.gov/adds/metars/
 
WSAP 270600Z 07006KT 9999 FEW016CB FEW018TCU SCT150 30/24 Q1010 RETS
TAF WSAP 270500Z 2706/2812 06008KT 9999 FEW018CB SCT020 
     TEMPO 2706/2709 3000 TSRA FEW012CB BKN015
       
WSSL 270631Z 08006KT 9999 FEW014 FEW017TCU SCT200 31/24 Q1010 RMK 0630Z Q1010
TAF WSSL 270500Z 2706/2812 06008KT 9999 FEW018CB SCT020 
     TEMPO 2706/2709 3000 TSRA FEW012CB BKN015
       
WSSS 270630Z VRB02KT 9999 FEW016 FEW018TCU SCT070 30/25 Q1010 NOSIG
TAF WSSS 270500Z 2706/2812 06008KT 9999 FEW018CB SCT020 
     TEMPO 2706/2709 3000 TSRA FEW012CB BKN015